Time;durP1;ratioP1;P1;durP2;ratioP2;P2;SDS_P1;SDS_P2;PMS_P1;PMS_P2;Temp;Humidity;BMP_temperature;BMP_pressure;BME280_temperature;BME280_humidity;BME280_pressure;Samples;Min_cycle;Max_cycle;Signal;HPM_P1;HPM_P2
2023/05/19 00:01:18;;;;;;;0.30;0.30;;;8.00;99.90;;;;;;5040390;28;20508;-74
2023/05/19 00:03:53;;;;;;;0.30;0.30;;;7.90;99.90;;;;;;5039381;28;20064;-74
2023/05/19 00:06:28;;;;;;;0.40;0.40;;;7.90;99.90;;;;;;5037692;28;20044;-74
2023/05/19 00:08:59;;;;;;;0.40;0.40;;;7.90;99.90;;;;;;5038530;28;20132;-74
2023/05/19 00:11:27;;;;;;;0.30;0.30;;;7.90;99.90;;;;;;5040322;28;20091;-74
2023/05/19 00:13:57;;;;;;;0.50;0.50;;;7.90;99.90;;;;;;5034553;28;20052;-74
2023/05/19 00:16:25;;;;;;;0.70;0.70;;;7.90;99.90;;;;;;5037362;28;20103;-74
2023/05/19 00:18:52;;;;;;;0.77;0.73;;;7.90;99.90;;;;;;5044317;28;20044;-74
2023/05/19 00:21:17;;;;;;;0.50;0.50;;;7.80;99.90;;;;;;5035954;28;20057;-74
2023/05/19 00:23:43;;;;;;;1.75;0.40;;;7.80;99.90;;;;;;5036767;28;20044;-74
2023/05/19 00:26:09;;;;;;;0.50;0.50;;;7.80;99.90;;;;;;5039467;28;20118;-74
2023/05/19 00:28:35;;;;;;;0.50;0.50;;;7.80;99.90;;;;;;5041611;28;20902;-74
2023/05/19 00:31:03;;;;;;;0.73;0.73;;;7.80;99.90;;;;;;5049280;28;20049;-74
2023/05/19 00:33:29;;;;;;;0.50;0.50;;;7.80;99.90;;;;;;5038456;28;20107;-74
2023/05/19 00:35:54;;;;;;;0.40;0.40;;;7.80;99.90;;;;;;5042866;28;20040;-74
2023/05/19 00:38:20;;;;;;;0.50;0.50;;;7.70;99.90;;;;;;5037990;28;20121;-74
2023/05/19 00:40:46;;;;;;;0.50;0.50;;;7.70;99.90;;;;;;5043664;28;20041;-74
2023/05/19 00:43:11;;;;;;;0.45;0.45;;;7.70;99.90;;;;;;5042493;28;20052;-74
2023/05/19 00:45:37;;;;;;;0.30;0.30;;;7.80;99.90;;;;;;5038016;28;20102;-73
2023/05/19 00:48:03;;;;;;;0.30;0.30;;;7.70;99.90;;;;;;5036930;28;20094;-74
2023/05/19 00:50:28;;;;;;;0.50;0.50;;;7.60;99.90;;;;;;5040948;28;20071;-74
2023/05/19 00:52:55;;;;;;;0.30;0.30;;;7.60;99.90;;;;;;5045198;28;20064;-73
2023/05/19 00:55:23;;;;;;;0.45;0.45;;;7.60;99.90;;;;;;5041660;28;20057;-74
2023/05/19 00:57:49;;;;;;;0.38;0.38;;;7.60;99.90;;;;;;5044196;28;20060;-74
2023/05/19 01:00:15;;;;;;;0.43;0.43;;;7.60;99.90;;;;;;5039534;28;20040;-74
2023/05/19 01:02:42;;;;;;;0.43;0.43;;;7.60;99.90;;;;;;5039051;28;20945;-74
2023/05/19 01:05:08;;;;;;;0.30;0.30;;;7.50;99.90;;;;;;5042360;28;20120;-74
2023/05/19 01:07:35;;;;;;;0.40;0.40;;;7.50;99.90;;;;;;5049702;28;20059;-74
2023/05/19 01:10:01;;;;;;;0.82;0.70;;;7.50;99.90;;;;;;5045226;28;20057;-74
2023/05/19 01:12:27;;;;;;;0.82;0.82;;;7.40;99.90;;;;;;5044327;28;20394;-74
2023/05/19 01:14:53;;;;;;;0.50;0.50;;;7.40;99.90;;;;;;5045180;28;20044;-74
2023/05/19 01:17:43;;;;;;;0.40;0.40;;;7.40;99.90;;;;;;5047935;28;20697;-74
2023/05/19 01:20:34;;;;;;;0.50;0.50;;;7.40;99.90;;;;;;5060472;28;20069;-74
2023/05/19 01:23:13;;;;;;;0.40;0.40;;;7.40;99.90;;;;;;5044780;28;20055;-74
2023/05/19 01:25:57;;;;;;;0.50;0.50;;;7.30;99.90;;;;;;5052306;28;20080;-74
2023/05/19 01:29:00;;;;;;;0.73;0.60;;;7.30;99.90;;;;;;5045693;28;20469;-74
2023/05/19 01:31:26;;;;;;;0.50;0.50;;;7.30;99.90;;;;;;5038501;28;20533;-74
2023/05/19 01:33:53;;;;;;;0.57;0.57;;;7.30;99.90;;;;;;5050845;28;20567;-74
2023/05/19 01:36:22;;;;;;;0.45;0.45;;;7.30;99.90;;;;;;5045202;28;20091;-74
2023/05/19 01:38:51;;;;;;;0.50;0.50;;;7.30;99.90;;;;;;5040814;28;20041;-74
2023/05/19 01:41:20;;;;;;;0.50;0.50;;;7.20;99.90;;;;;;5047287;28;20045;-74
2023/05/19 01:43:47;;;;;;;0.95;0.95;;;7.20;99.90;;;;;;5052724;28;20098;-74
2023/05/19 01:46:15;;;;;;;1.15;1.05;;;7.20;99.90;;;;;;5048136;28;20041;-74
2023/05/19 01:48:43;;;;;;;0.60;0.60;;;7.20;99.90;;;;;;5055825;28;20094;-74
2023/05/19 01:51:09;;;;;;;0.40;0.40;;;7.20;99.90;;;;;;5053321;28;20460;-74
2023/05/19 01:53:35;;;;;;;0.90;0.90;;;7.20;99.90;;;;;;5047641;28;20045;-74
2023/05/19 01:56:01;;;;;;;0.43;0.43;;;7.20;99.90;;;;;;5046694;28;20060;-74
2023/05/19 01:58:47;;;;;;;0.60;0.60;;;7.10;99.90;;;;;;5053248;28;20053;-74
2023/05/19 02:01:28;;;;;;;1.05;0.95;;;7.10;99.90;;;;;;5054247;28;20049;-74
2023/05/19 02:03:59;;;;;;;0.50;0.50;;;7.10;99.90;;;;;;5053251;28;20084;-74
2023/05/19 02:06:39;;;;;;;0.57;0.57;;;7.10;99.90;;;;;;5049264;28;20057;-74
2023/05/19 02:09:17;;;;;;;0.80;0.80;;;7.00;99.90;;;;;;5048280;28;20128;-74
2023/05/19 02:11:54;;;;;;;0.40;0.40;;;7.10;99.90;;;;;;5053501;28;20097;-74
2023/05/19 02:14:29;;;;;;;0.70;0.70;;;7.00;99.90;;;;;;5047909;28;20048;-74
2023/05/19 02:16:57;;;;;;;0.50;0.50;;;7.00;99.90;;;;;;5048721;28;20033;-74
2023/05/19 02:19:27;;;;;;;;;;;7.00;99.90;;;;;;5053140;28;20080;-74
2023/05/19 02:21:53;;;;;;;0.45;0.45;;;7.00;99.90;;;;;;5053693;28;19948;-74
2023/05/19 02:24:21;;;;;;;0.30;0.30;;;7.00;99.90;;;;;;5054393;28;20829;-74
2023/05/19 02:26:48;;;;;;;0.50;0.50;;;7.00;99.90;;;;;;5053417;28;20044;-74
2023/05/19 02:29:14;;;;;;;0.22;0.22;;;7.00;99.90;;;;;;5051362;28;20502;-74
2023/05/19 02:31:40;;;;;;;0.40;0.40;;;7.00;99.90;;;;;;5049273;28;20048;-74
2023/05/19 02:34:07;;;;;;;0.40;0.40;;;7.00;99.90;;;;;;5050360;28;20041;-74
2023/05/19 02:36:34;;;;;;;0.30;0.30;;;6.90;99.90;;;;;;5053324;28;20048;-74
2023/05/19 02:39:05;;;;;;;0.40;0.40;;;6.90;99.90;;;;;;5048052;28;20775;-74
2023/05/19 02:41:31;;;;;;;0.40;0.40;;;6.90;99.90;;;;;;5054633;28;20056;-74
2023/05/19 02:43:57;;;;;;;0.30;0.30;;;6.80;99.90;;;;;;5049145;28;20052;-74
2023/05/19 02:46:23;;;;;;;0.30;0.30;;;6.80;99.90;;;;;;5044239;28;20044;-74
2023/05/19 02:48:49;;;;;;;0.32;0.32;;;6.80;99.90;;;;;;5047086;28;20057;-74
2023/05/19 02:51:15;;;;;;;0.40;0.40;;;6.80;99.90;;;;;;5054307;28;20056;-74
2023/05/19 02:53:41;;;;;;;0.60;0.60;;;6.70;99.90;;;;;;5050660;28;20057;-74
2023/05/19 02:56:07;;;;;;;0.40;0.40;;;6.70;99.90;;;;;;5045331;28;20052;-74
2023/05/19 02:58:33;;;;;;;0.32;0.32;;;6.70;99.90;;;;;;5046467;28;20037;-74
2023/05/19 03:00:58;;;;;;;0.40;0.40;;;6.70;99.90;;;;;;5044572;28;20563;-74
2023/05/19 03:03:24;;;;;;;0.40;0.40;;;6.70;99.90;;;;;;5046434;28;20474;-74
2023/05/19 03:05:50;;;;;;;0.55;0.55;;;6.60;99.90;;;;;;5046803;28;20060;-74
2023/05/19 03:08:16;;;;;;;0.30;0.30;;;6.70;99.90;;;;;;5040664;28;20435;-74
2023/05/19 03:10:41;;;;;;;0.30;0.30;;;6.60;99.90;;;;;;5042043;28;20080;-74
2023/05/19 03:13:07;;;;;;;0.40;0.40;;;6.60;99.90;;;;;;5051100;28;21490;-74
2023/05/19 03:15:35;;;;;;;0.40;0.40;;;6.60;99.90;;;;;;5050113;28;20045;-74
2023/05/19 03:18:01;;;;;;;0.63;0.63;;;6.50;99.90;;;;;;5049400;28;20766;-74
2023/05/19 03:20:26;;;;;;;0.57;0.57;;;6.50;99.90;;;;;;5044519;28;20052;-74
2023/05/19 03:22:52;;;;;;;0.40;0.40;;;6.50;99.90;;;;;;5050279;28;20460;-74
2023/05/19 03:25:18;;;;;;;0.40;0.40;;;6.50;99.90;;;;;;5048941;28;20036;-74
2023/05/19 03:27:43;;;;;;;0.50;0.50;;;6.40;99.90;;;;;;5047000;28;20088;-74
2023/05/19 03:30:10;;;;;;;0.43;0.43;;;6.40;99.90;;;;;;5052640;28;20056;-74
2023/05/19 03:32:37;;;;;;;0.50;0.50;;;6.40;99.90;;;;;;5053688;28;20037;-74
2023/05/19 03:35:04;;;;;;;0.40;0.40;;;6.40;99.90;;;;;;5048754;28;20410;-74
2023/05/19 03:37:31;;;;;;;0.30;0.30;;;6.40;99.90;;;;;;5054666;28;20052;-74
2023/05/19 03:39:57;;;;;;;0.35;0.35;;;6.40;99.90;;;;;;5044373;28;20088;-74
2023/05/19 03:42:23;;;;;;;0.40;0.40;;;6.40;99.90;;;;;;5047283;28;20095;-74
2023/05/19 03:44:49;;;;;;;0.30;0.30;;;6.40;99.90;;;;;;5048778;28;20052;-74
2023/05/19 03:47:15;;;;;;;0.30;0.30;;;6.40;99.90;;;;;;5051896;28;20130;-74
2023/05/19 03:49:40;;;;;;;0.40;0.40;;;6.40;99.90;;;;;;5046202;28;20131;-74
2023/05/19 03:52:06;;;;;;;0.30;0.30;;;6.40;99.90;;;;;;5051288;28;20572;-74
2023/05/19 03:54:32;;;;;;;0.40;0.40;;;6.40;99.90;;;;;;5045174;28;20414;-74
2023/05/19 03:56:58;;;;;;;0.30;0.30;;;6.40;99.90;;;;;;5041613;28;20045;-74
2023/05/19 03:59:23;;;;;;;0.32;0.32;;;6.50;99.90;;;;;;5053858;28;20044;-74
2023/05/19 04:01:50;;;;;;;0.40;0.40;;;6.60;99.90;;;;;;5042790;28;20496;-74
2023/05/19 04:04:15;;;;;;;0.30;0.30;;;6.60;99.90;;;;;;5046250;28;20060;-74
2023/05/19 04:06:41;;;;;;;0.40;0.40;;;6.70;99.90;;;;;;5043045;28;20419;-74
2023/05/19 04:09:12;;;;;;;0.32;0.32;;;6.80;99.90;;;;;;5048120;28;20056;-74
2023/05/19 04:11:39;;;;;;;0.50;0.50;;;7.00;99.90;;;;;;5046657;28;20037;-74
2023/05/19 04:14:05;;;;;;;0.50;0.50;;;7.30;99.90;;;;;;5043715;28;20080;-75
2023/05/19 04:16:31;;;;;;;0.38;0.38;;;7.80;99.90;;;;;;5055215;28;20052;-74
2023/05/19 04:18:57;;;;;;;0.40;0.40;;;8.20;99.90;;;;;;5047565;28;20127;-75
2023/05/19 04:21:22;;;;;;;0.80;0.60;;;8.60;99.90;;;;;;5050335;28;20139;-75
2023/05/19 04:23:48;;;;;;;0.40;0.40;;;9.00;99.90;;;;;;5051922;28;20060;-75
2023/05/19 04:26:14;;;;;;;1.25;1.15;;;9.40;99.90;;;;;;5048980;28;20044;-75
2023/05/19 04:28:41;;;;;;;1.02;1.02;;;9.60;99.90;;;;;;5041487;28;20735;-74
2023/05/19 04:31:11;;;;;;;0.85;0.85;;;9.80;99.90;;;;;;5037527;28;20053;-75
2023/05/19 04:33:37;;;;;;;0.45;0.45;;;9.80;99.90;;;;;;5043992;28;20128;-74
2023/05/19 04:36:07;;;;;;;0.50;0.50;;;9.50;99.90;;;;;;5050617;28;20048;-74
2023/05/19 04:38:33;;;;;;;0.30;0.30;;;9.30;99.90;;;;;;5042213;28;20041;-74
2023/05/19 04:41:00;;;;;;;0.70;0.70;;;9.50;99.90;;;;;;5041095;28;20459;-74
2023/05/19 04:43:27;;;;;;;0.40;0.40;;;9.80;99.90;;;;;;5040821;28;20044;-74
2023/05/19 04:45:53;;;;;;;1.02;1.02;;;9.70;99.90;;;;;;5039444;28;20041;-74
2023/05/19 04:48:20;;;;;;;0.63;0.63;;;9.60;99.90;;;;;;5037993;28;20561;-74
2023/05/19 04:50:47;;;;;;;0.60;0.60;;;9.40;99.90;;;;;;5039566;28;20053;-74
2023/05/19 04:53:14;;;;;;;0.55;0.55;;;9.20;99.90;;;;;;5037977;28;20049;-74
2023/05/19 04:55:40;;;;;;;0.50;0.50;;;9.30;99.90;;;;;;5037699;28;20053;-74
2023/05/19 04:58:05;;;;;;;0.60;0.60;;;9.20;99.90;;;;;;5040554;28;20040;-74
2023/05/19 05:00:34;;;;;;;0.38;0.38;;;9.20;99.90;;;;;;5037488;28;20041;-74
2023/05/19 05:03:03;;;;;;;0.50;0.50;;;9.00;99.90;;;;;;5036495;28;20049;-75
2023/05/19 05:05:29;;;;;;;0.60;0.60;;;8.90;99.90;;;;;;5039954;28;20441;-74
2023/05/19 05:07:56;;;;;;;1.23;1.13;;;8.80;99.90;;;;;;5039406;28;20076;-74
2023/05/19 05:10:22;;;;;;;0.68;0.68;;;8.90;99.90;;;;;;5038217;28;20048;-75
2023/05/19 05:12:48;;;;;;;0.63;0.63;;;9.10;99.90;;;;;;5038728;28;20052;-74
2023/05/19 05:15:16;;;;;;;0.55;0.55;;;9.20;99.90;;;;;;5037533;28;20054;-74
2023/05/19 05:17:42;;;;;;;1.23;1.13;;;9.20;99.90;;;;;;5037623;28;20169;-74
2023/05/19 05:20:10;;;;;;;0.50;0.50;;;9.20;99.90;;;;;;5039524;28;20292;-74
2023/05/19 05:22:37;;;;;;;0.98;0.98;;;9.20;99.90;;;;;;5037550;28;20518;-74
2023/05/19 05:25:04;;;;;;;1.35;1.27;;;9.20;99.90;;;;;;5037375;28;20044;-74
2023/05/19 05:27:30;;;;;;;3.70;1.58;;;9.30;99.90;;;;;;5036146;28;20043;-74
2023/05/19 05:29:55;;;;;;;0.88;0.88;;;9.30;99.90;;;;;;5038771;28;20133;-75
2023/05/19 05:32:21;;;;;;;1.48;1.38;;;9.40;99.90;;;;;;5035095;28;20045;-74
2023/05/19 05:34:47;;;;;;;1.77;0.70;;;9.40;99.90;;;;;;5035950;28;20044;-74
2023/05/19 05:37:14;;;;;;;1.77;1.63;;;9.50;99.90;;;;;;5038609;28;20072;-75
2023/05/19 05:39:39;;;;;;;1.58;1.50;;;9.60;99.90;;;;;;5040631;28;20171;-74
2023/05/19 05:42:07;;;;;;;0.52;0.52;;;9.70;99.90;;;;;;5041432;28;20838;-75
2023/05/19 05:44:34;;;;;;;0.82;0.82;;;9.80;99.90;;;;;;5047294;28;20409;-74
2023/05/19 05:47:01;;;;;;;0.73;0.73;;;9.90;99.90;;;;;;5038812;28;20045;-74
2023/05/19 05:49:27;;;;;;;1.30;1.20;;;9.90;99.90;;;;;;5038899;28;20375;-75
2023/05/19 05:51:53;;;;;;;1.50;1.05;;;9.90;99.90;;;;;;5038323;28;22075;-75
2023/05/19 05:54:21;;;;;;;2.42;1.50;;;10.00;99.90;;;;;;5033947;28;20057;-75
2023/05/19 05:56:47;;;;;;;0.98;0.98;;;10.10;99.90;;;;;;5041923;28;20060;-74
2023/05/19 05:59:15;;;;;;;1.52;1.27;;;10.20;99.90;;;;;;5039673;28;20406;-75
2023/05/19 06:01:42;;;;;;;0.85;0.70;;;10.30;99.90;;;;;;5037240;28;20083;-75
2023/05/19 06:04:08;;;;;;;1.23;1.17;;;10.40;99.90;;;;;;5037416;28;20053;-74
2023/05/19 06:06:36;;;;;;;2.10;1.92;;;10.40;99.90;;;;;;5037245;28;20038;-75
2023/05/19 06:09:02;;;;;;;4.78;2.88;;;10.50;99.90;;;;;;5041832;28;20084;-74
2023/05/19 06:11:28;;;;;;;1.58;1.48;;;10.60;99.90;;;;;;5050134;28;20072;-74
2023/05/19 06:13:54;;;;;;;2.17;2.08;;;10.70;99.90;;;;;;5042170;28;20175;-74
2023/05/19 06:16:21;;;;;;;1.58;1.48;;;10.70;99.90;;;;;;5039049;28;20052;-74
2023/05/19 06:18:47;;;;;;;0.90;0.90;;;10.80;99.90;;;;;;5048430;28;20051;-74
2023/05/19 06:21:13;;;;;;;1.48;1.38;;;10.90;99.90;;;;;;5037978;28;20134;-74
2023/05/19 06:23:40;;;;;;;2.88;2.63;;;11.00;99.90;;;;;;5036026;28;20123;-75
2023/05/19 06:26:05;;;;;;;2.47;1.38;;;11.10;99.90;;;;;;5041413;28;20053;-75
2023/05/19 06:28:32;;;;;;;1.77;1.60;;;11.20;99.90;;;;;;5054610;28;20052;-75
2023/05/19 06:30:58;;;;;;;0.82;0.82;;;11.30;99.90;;;;;;5043786;28;20581;-74
2023/05/19 06:33:24;;;;;;;2.92;2.50;;;11.30;99.90;;;;;;5051722;28;20080;-74
2023/05/19 06:35:50;;;;;;;2.60;1.85;;;11.40;99.90;;;;;;5049344;28;20525;-74
2023/05/19 06:38:16;;;;;;;3.25;1.58;;;11.50;99.90;;;;;;5046516;28;20045;-75
2023/05/19 06:40:42;;;;;;;1.63;1.48;;;11.60;99.90;;;;;;5043171;28;20080;-75
2023/05/19 06:43:07;;;;;;;1.23;1.23;;;11.70;99.90;;;;;;5042689;28;20048;-75
2023/05/19 06:45:33;;;;;;;2.10;1.52;;;11.90;99.90;;;;;;5041344;28;20052;-74
2023/05/19 06:47:59;;;;;;;1.35;1.35;;;12.10;99.90;;;;;;5043458;28;20402;-70
2023/05/19 06:50:26;;;;;;;1.73;1.65;;;12.30;99.90;;;;;;5040152;28;20061;-74
2023/05/19 06:52:51;;;;;;;2.17;1.95;;;12.40;99.90;;;;;;5043839;28;20168;-74
2023/05/19 06:55:17;;;;;;;3.28;1.98;;;12.60;99.90;;;;;;5043504;28;20505;-73
2023/05/19 06:57:43;;;;;;;1.00;1.00;;;12.80;99.90;;;;;;5041844;28;20049;-74
2023/05/19 07:00:11;;;;;;;2.47;2.28;;;12.90;99.90;;;;;;5043526;28;20098;-74
2023/05/19 07:02:37;;;;;;;1.08;1.08;;;13.00;99.90;;;;;;5042928;28;20089;-73
2023/05/19 07:05:03;;;;;;;1.50;1.50;;;13.10;99.90;;;;;;5041303;28;20048;-73
2023/05/19 07:07:29;;;;;;;2.08;1.38;;;13.30;99.90;;;;;;5044130;28;20041;-73
2023/05/19 07:09:55;;;;;;;1.58;1.50;;;13.40;99.90;;;;;;5044150;28;20048;-73
2023/05/19 07:12:20;;;;;;;1.92;1.83;;;13.60;99.90;;;;;;5041952;28;20122;-73
2023/05/19 07:14:46;;;;;;;1.88;1.58;;;13.80;99.90;;;;;;5042175;28;20060;-73
2023/05/19 07:17:12;;;;;;;0.60;0.60;;;13.80;99.90;;;;;;5041180;28;20045;-73
2023/05/19 07:19:38;;;;;;;1.50;1.40;;;14.00;99.20;;;;;;5043088;28;20115;-73
2023/05/19 07:22:03;;;;;;;3.13;2.13;;;14.10;95.80;;;;;;5043131;28;20624;-73
2023/05/19 07:24:30;;;;;;;4.07;2.40;;;14.20;94.00;;;;;;5040716;28;20048;-73
2023/05/19 07:26:56;;;;;;;2.97;2.75;;;14.20;93.00;;;;;;5025104;28;20048;-73
2023/05/19 07:29:21;;;;;;;0.93;0.93;;;14.10;92.90;;;;;;5041112;28;20079;-73
2023/05/19 07:31:47;;;;;;;1.90;1.80;;;14.20;92.60;;;;;;5045308;28;20461;-73
2023/05/19 07:34:13;;;;;;;1.75;1.65;;;14.40;92.70;;;;;;5043065;28;20485;-73
2023/05/19 07:36:38;;;;;;;4.03;3.55;;;14.40;92.20;;;;;;5040647;28;20044;-73
2023/05/19 07:39:04;;;;;;;0.98;0.98;;;14.50;90.30;;;;;;5043387;28;20075;-73
2023/05/19 07:41:30;;;;;;;1.75;1.65;;;14.70;91.60;;;;;;5037829;28;20139;-73
2023/05/19 07:43:55;;;;;;;2.15;2.05;;;14.70;85.90;;;;;;5040948;28;20524;-73
2023/05/19 07:46:21;;;;;;;2.00;1.48;;;14.60;84.50;;;;;;5043274;28;20044;-73
2023/05/19 07:48:47;;;;;;;2.72;2.53;;;14.70;86.30;;;;;;5042948;28;20550;-73
2023/05/19 07:51:14;;;;;;;0.95;0.95;;;14.90;84.60;;;;;;5041730;28;20151;-74
2023/05/19 07:53:40;;;;;;;2.50;2.30;;;15.00;82.70;;;;;;5041186;28;20084;-73
2023/05/19 07:56:06;;;;;;;0.57;0.57;;;15.20;80.60;;;;;;5043279;28;20164;-73
2023/05/19 07:58:32;;;;;;;2.38;1.88;;;15.30;79.00;;;;;;5040609;28;20421;-73
2023/05/19 08:00:58;;;;;;;1.58;1.48;;;15.40;79.50;;;;;;5039649;28;20055;-74
2023/05/19 08:03:25;;;;;;;1.58;1.48;;;15.40;79.30;;;;;;5041963;28;20474;-73
2023/05/19 08:05:51;;;;;;;1.67;1.58;;;15.60;79.20;;;;;;5056347;28;20049;-73
2023/05/19 08:08:18;;;;;;;0.90;0.90;;;15.70;73.90;;;;;;5038861;28;20110;-73
2023/05/19 08:10:44;;;;;;;0.88;0.88;;;15.70;73.20;;;;;;5042794;28;20130;-73
2023/05/19 08:13:10;;;;;;;1.45;1.00;;;15.70;74.80;;;;;;5045727;28;20045;-73
2023/05/19 08:15:36;;;;;;;3.72;1.40;;;15.80;72.90;;;;;;5044145;28;20520;-73
2023/05/19 08:18:03;;;;;;;1.25;1.25;;;15.80;70.70;;;;;;5041043;28;20049;-73
2023/05/19 08:20:30;;;;;;;1.85;1.75;;;15.80;72.90;;;;;;5044767;28;20072;-73
2023/05/19 08:22:56;;;;;;;1.05;1.05;;;15.70;71.50;;;;;;5045249;28;20584;-73
2023/05/19 08:25:22;;;;;;;0.93;0.93;;;15.90;70.80;;;;;;5045785;28;20049;-73
2023/05/19 08:27:47;;;;;;;0.75;0.75;;;16.00;70.50;;;;;;5043680;28;20399;-73
2023/05/19 08:30:13;;;;;;;1.30;1.20;;;16.00;68.40;;;;;;5042069;28;20053;-73
2023/05/19 08:32:39;;;;;;;2.17;2.08;;;16.00;70.40;;;;;;5041097;28;20045;-73
2023/05/19 08:35:05;;;;;;;2.55;1.70;;;16.00;68.30;;;;;;5039049;28;20049;-73
2023/05/19 08:37:31;;;;;;;1.27;1.27;;;16.10;71.20;;;;;;5042215;28;20547;-73
2023/05/19 08:39:56;;;;;;;0.88;0.88;;;16.20;69.90;;;;;;5039812;28;20120;-73
2023/05/19 08:42:22;;;;;;;2.60;2.40;;;16.30;70.50;;;;;;5041571;28;20175;-73
2023/05/19 08:44:48;;;;;;;3.30;1.88;;;16.30;68.50;;;;;;5038579;28;20053;-73
2023/05/19 08:47:14;;;;;;;1.00;1.00;;;16.40;70.60;;;;;;5041969;28;20478;-73
2023/05/19 08:49:44;;;;;;;3.55;1.17;;;16.50;67.70;;;;;;5040911;28;20114;-73
2023/05/19 08:52:24;;;;;;;2.08;1.77;;;16.70;68.90;;;;;;5036912;28;20073;-73
2023/05/19 08:54:59;;;;;;;0.85;0.82;;;16.90;67.70;;;;;;5043715;28;20179;-73
2023/05/19 08:57:26;;;;;;;0.60;0.60;;;17.10;68.20;;;;;;5041638;28;20045;-73
2023/05/19 08:59:54;;;;;;;1.13;1.00;;;17.20;67.80;;;;;;5045155;28;20074;-73
2023/05/19 09:02:21;;;;;;;1.08;0.98;;;17.30;66.50;;;;;;5053642;28;20056;-73
2023/05/19 09:04:48;;;;;;;1.53;0.73;;;17.30;65.70;;;;;;5043410;28;20108;-73
2023/05/19 09:07:14;;;;;;;2.58;2.05;;;17.30;66.20;;;;;;5038959;28;20306;-73
2023/05/19 09:09:42;;;;;;;0.70;0.50;;;17.40;65.90;;;;;;5039329;28;20063;-74
2023/05/19 09:12:12;;;;;;;1.10;0.77;;;17.50;64.40;;;;;;5039973;28;20129;-74
2023/05/19 09:14:38;;;;;;;3.05;1.98;;;17.40;64.30;;;;;;5040639;28;20604;-74
2023/05/19 09:17:04;;;;;;;1.58;1.48;;;17.20;63.50;;;;;;5022534;28;20087;-74
2023/05/19 09:19:30;;;;;;;1.45;1.35;;;17.30;64.80;;;;;;5021149;28;20041;-74
2023/05/19 09:22:02;;;;;;;0.98;0.85;;;17.30;66.40;;;;;;5040472;28;20055;-74
2023/05/19 09:24:28;;;;;;;0.60;0.60;;;17.40;65.80;;;;;;5039601;28;20094;-74
2023/05/19 09:26:56;;;;;;;0.68;0.68;;;17.60;65.10;;;;;;5041122;28;20136;-74
2023/05/19 09:29:21;;;;;;;3.75;1.08;;;17.80;65.20;;;;;;5045860;28;20758;-74
2023/05/19 09:31:59;;;;;;;1.38;1.38;;;17.80;64.20;;;;;;5042667;28;20098;-74
2023/05/19 09:34:25;;;;;;;1.70;1.60;;;17.70;62.90;;;;;;5040563;28;20380;-74
2023/05/19 09:36:52;;;;;;;0.40;0.40;;;17.70;65.10;;;;;;5039170;28;20115;-74
2023/05/19 09:39:22;;;;;;;0.85;0.85;;;17.70;62.50;;;;;;5042310;28;20125;-74
2023/05/19 09:41:52;;;;;;;5.20;1.50;;;17.80;63.50;;;;;;5040057;28;20044;-74
2023/05/19 09:44:31;;;;;;;4.40;1.42;;;17.90;65.20;;;;;;5039985;28;20048;-74
2023/05/19 09:46:57;;;;;;;0.75;0.75;;;18.00;65.10;;;;;;5040489;28;20063;-74
2023/05/19 09:49:28;;;;;;;4.10;1.85;;;18.10;63.30;;;;;;5044956;28;20120;-74
2023/05/19 09:51:55;;;;;;;1.58;0.85;;;17.90;63.30;;;;;;5044841;28;20060;-74
2023/05/19 09:54:26;;;;;;;1.73;1.17;;;18.00;62.20;;;;;;5043543;28;20053;-74
2023/05/19 09:57:02;;;;;;;1.00;1.00;;;18.00;63.00;;;;;;5054394;28;20049;-74
2023/05/19 09:59:29;;;;;;;0.80;0.80;;;18.10;63.50;;;;;;5044860;28;20073;-74
2023/05/19 10:01:57;;;;;;;1.80;1.70;;;18.30;63.40;;;;;;5048354;28;20556;-74
2023/05/19 10:04:25;;;;;;;1.25;1.17;;;18.40;63.20;;;;;;5048656;28;20055;-74
2023/05/19 10:06:52;;;;;;;1.25;1.15;;;18.30;61.50;;;;;;5052244;28;20049;-74
2023/05/19 10:09:28;;;;;;;2.80;1.67;;;18.40;62.00;;;;;;5055862;28;20129;-77
2023/05/19 10:11:56;;;;;;;0.50;0.50;;;18.50;61.80;;;;;;5051529;28;20053;-71
2023/05/19 10:14:23;;;;;;;2.38;1.48;;;18.80;63.20;;;;;;5050740;28;20398;-71
2023/05/19 10:16:53;;;;;;;1.45;1.35;;;18.70;60.00;;;;;;5045388;28;20056;-72
2023/05/19 10:19:23;;;;;;;0.63;0.63;;;18.60;60.70;;;;;;5047943;28;20076;-72
2023/05/19 10:21:50;;;;;;;2.30;0.73;;;18.60;60.70;;;;;;5053084;28;20068;-72
2023/05/19 10:24:16;;;;;;;1.23;1.23;;;18.60;60.60;;;;;;5047252;28;20048;-72
2023/05/19 10:26:47;;;;;;;4.80;1.85;;;18.50;60.10;;;;;;5048209;28;20147;-72
2023/05/19 10:29:17;;;;;;;3.35;1.38;;;18.40;60.60;;;;;;5053019;28;20447;-71
2023/05/19 10:31:46;;;;;;;1.25;1.25;;;18.50;61.10;;;;;;5041921;28;20048;-72
2023/05/19 10:34:52;;;;;;;1.25;1.02;;;18.50;60.30;;;;;;5051385;28;20534;-72
2023/05/19 10:37:24;;;;;;;0.70;0.70;;;18.50;59.20;;;;;;5054612;28;20040;-72
2023/05/19 10:39:51;;;;;;;0.90;0.90;;;18.70;60.50;;;;;;5044389;28;20472;-73
2023/05/19 10:42:34;;;;;;;1.50;1.40;;;18.90;62.00;;;;;;5047703;28;20061;-72
2023/05/19 10:45:12;;;;;;;1.40;1.38;;;19.00;59.80;;;;;;5051824;28;20056;-72
2023/05/19 10:47:43;;;;;;;1.63;1.52;;;19.10;59.30;;;;;;5046286;28;20045;-72
2023/05/19 10:50:09;;;;;;;2.05;1.55;;;19.20;59.60;;;;;;5056386;28;20148;-72
2023/05/19 10:52:39;;;;;;;0.82;0.82;;;19.30;60.00;;;;;;5049962;28;20053;-72
2023/05/19 10:55:14;;;;;;;1.77;1.67;;;19.20;59.00;;;;;;5050309;28;20089;-72
2023/05/19 10:57:53;;;;;;;0.57;0.57;;;19.20;58.70;;;;;;5048137;28;20155;-73
2023/05/19 11:00:30;;;;;;;1.48;1.38;;;19.20;59.70;;;;;;5056111;28;20036;-72
2023/05/19 11:03:16;;;;;;;1.23;1.17;;;19.20;58.70;;;;;;5037942;28;20041;-72
2023/05/19 11:05:45;;;;;;;0.70;0.60;;;19.30;59.80;;;;;;5048009;28;20621;-72
2023/05/19 11:08:12;;;;;;;1.17;1.08;;;19.40;59.00;;;;;;5045323;28;20059;-72
2023/05/19 11:10:38;;;;;;;2.40;2.25;;;19.40;58.40;;;;;;5042474;28;20056;-72
2023/05/19 11:13:04;;;;;;;1.42;1.40;;;19.20;58.20;;;;;;5043762;28;20044;-72
2023/05/19 11:15:35;;;;;;;1.13;1.00;;;19.40;58.60;;;;;;5040559;28;20094;-72
2023/05/19 11:18:03;;;;;;;1.13;1.13;;;19.30;58.00;;;;;;5046250;28;20052;-72
2023/05/19 11:20:33;;;;;;;1.45;1.35;;;19.20;58.00;;;;;;5045100;28;20037;-72
2023/05/19 11:23:13;;;;;;;9.57;2.35;;;19.10;58.20;;;;;;5045963;28;20045;-72
2023/05/19 11:25:48;;;;;;;0.88;0.88;;;19.20;57.80;;;;;;5040528;28;20048;-72
2023/05/19 11:28:18;;;;;;;0.60;0.60;;;19.40;57.90;;;;;;5041893;28;20039;-72
2023/05/19 11:30:49;;;;;;;1.17;1.15;;;19.50;58.10;;;;;;5041144;28;20060;-72
2023/05/19 11:33:18;;;;;;;13.88;2.22;;;19.50;58.20;;;;;;5043730;28;20127;-72
2023/05/19 11:35:45;;;;;;;0.85;0.85;;;19.40;57.80;;;;;;5041739;28;20823;-72
2023/05/19 11:38:13;;;;;;;0.98;0.88;;;19.40;56.80;;;;;;5040334;28;20045;-72
2023/05/19 11:40:40;;;;;;;;;;;19.20;58.60;;;;;;5043548;28;20049;-72
2023/05/19 11:43:06;;;;;;;1.33;1.33;;;19.30;57.80;;;;;;5041943;28;19929;-72
2023/05/19 11:45:33;;;;;;;0.80;0.73;;;19.20;57.90;;;;;;5044385;28;20052;-72
2023/05/19 11:48:01;;;;;;;0.93;0.93;;;19.30;56.90;;;;;;5040813;28;20049;-71
2023/05/19 11:50:34;;;;;;;0.70;0.70;;;19.40;56.80;;;;;;5040013;28;20052;-71
2023/05/19 11:53:00;;;;;;;0.73;0.73;;;19.50;57.00;;;;;;5042024;28;20076;-71
2023/05/19 11:55:25;;;;;;;1.42;1.33;;;19.80;58.00;;;;;;5039598;28;20553;-72
2023/05/19 11:57:57;;;;;;;1.85;1.75;;;19.80;56.50;;;;;;5044140;28;20052;-72
2023/05/19 12:00:23;;;;;;;0.45;0.45;;;19.80;56.60;;;;;;5038730;28;20127;-72
2023/05/19 12:02:49;;;;;;;0.73;0.73;;;19.80;56.80;;;;;;5038368;28;20091;-72
2023/05/19 12:05:23;;;;;;;1.85;1.75;;;19.80;57.30;;;;;;5046526;28;20073;-72
2023/05/19 12:07:50;;;;;;;2.83;1.55;;;19.90;56.60;;;;;;5050627;28;20564;-72
2023/05/19 12:10:27;;;;;;;1.50;1.40;;;20.00;56.70;;;;;;5045885;28;20080;-72
2023/05/19 12:12:54;;;;;;;1.10;1.10;;;19.90;57.70;;;;;;5046328;28;20610;-72
2023/05/19 12:15:20;;;;;;;1.48;0.95;;;19.90;56.00;;;;;;5042468;28;20049;-72
2023/05/19 12:18:00;;;;;;;4.35;1.88;;;19.80;54.50;;;;;;5044591;28;20044;-72
2023/05/19 12:20:27;;;;;;;1.15;1.15;;;19.80;57.20;;;;;;5046398;28;20470;-72
2023/05/19 12:22:54;;;;;;;0.60;0.60;;;19.90;56.50;;;;;;5046365;28;20724;-72
2023/05/19 12:25:20;;;;;;;1.27;1.20;;;19.90;56.50;;;;;;5048287;28;20053;-72
2023/05/19 12:27:48;;;;;;;2.38;2.03;;;19.80;56.90;;;;;;5050567;28;20124;-72
2023/05/19 12:30:14;;;;;;;6.70;1.83;;;19.80;56.00;;;;;;5052611;28;20792;-72
2023/05/19 12:32:39;;;;;;;4.57;0.95;;;19.80;57.10;;;;;;5053881;28;20067;-72
2023/05/19 12:35:06;;;;;;;4.03;1.77;;;19.90;56.70;;;;;;5047147;28;20053;-71
2023/05/19 12:37:33;;;;;;;5.07;2.63;;;19.60;55.20;;;;;;5037421;28;20057;-71
2023/05/19 12:40:00;;;;;;;2.28;1.98;;;19.30;56.20;;;;;;5042362;28;20092;-70
2023/05/19 12:42:30;;;;;;;2.97;2.10;;;19.20;56.20;;;;;;5057446;28;20036;-70
2023/05/19 12:44:59;;;;;;;2.30;1.70;;;19.40;57.20;;;;;;5048268;28;20147;-71
2023/05/19 12:47:33;;;;;;;1.33;1.25;;;19.40;55.70;;;;;;5049733;28;20072;-71
2023/05/19 12:49:59;;;;;;;0.88;0.88;;;19.60;55.60;;;;;;5043551;28;20041;-71
2023/05/19 12:52:26;;;;;;;1.27;1.17;;;19.50;56.40;;;;;;5045791;28;20090;-71
2023/05/19 12:55:05;;;;;;;1.15;1.15;;;19.60;56.30;;;;;;5044813;28;20041;-71
2023/05/19 12:57:36;;;;;;;2.72;2.53;;;19.50;56.50;;;;;;5051945;28;20060;-71